Time;durP1;ratioP1;P1;durP2;ratioP2;P2;SDS_P1;SDS_P2;PMS_P1;PMS_P2;Temp;Humidity;BMP_temperature;BMP_pressure;BME280_temperature;BME280_humidity;BME280_pressure;Samples;Min_cycle;Max_cycle;Signal;HPM_P1;HPM_P2
2023/01/30 00:01:26;;;;;;;5.07;3.30;;;13.60;57.90;;;;;;5072981;28;20976;-77
2023/01/30 00:03:52;;;;;;;4.05;2.80;;;13.60;57.90;;;;;;5073648;28;20043;-77
2023/01/30 00:06:18;;;;;;;5.18;3.17;;;13.60;58.00;;;;;;5073601;28;20021;-78
2023/01/30 00:08:44;;;;;;;4.78;2.85;;;13.70;58.00;;;;;;5073541;28;20033;-77
2023/01/30 00:11:11;;;;;;;5.32;2.13;;;13.60;58.00;;;;;;5073795;28;20024;-77
2023/01/30 00:13:38;;;;;;;3.25;2.55;;;13.60;58.00;;;;;;5073430;28;20021;-77
2023/01/30 00:16:03;;;;;;;3.45;2.60;;;13.60;58.00;;;;;;5073686;28;20424;-77
2023/01/30 00:18:30;;;;;;;5.72;2.40;;;13.60;65.90;;;;;;5073400;28;20106;-74
2023/01/30 00:20:59;;;;;;;4.25;2.00;;;13.60;58.00;;;;;;5073348;28;20359;-75
2023/01/30 00:23:26;;;;;;;4.43;2.30;;;13.60;58.00;;;;;;5073512;28;20078;-74
2023/01/30 00:25:52;;;;;;;4.00;2.55;;;13.60;58.10;;;;;;5073204;28;20103;-74
2023/01/30 00:28:18;;;;;;;4.63;1.95;;;13.60;58.10;;;;;;5073090;28;20029;-75
2023/01/30 00:30:44;;;;;;;3.03;2.33;;;13.60;58.20;;;;;;5073062;28;20086;-74
2023/01/30 00:33:10;;;;;;;3.63;2.03;;;13.60;58.10;;;;;;5073084;28;20046;-75
2023/01/30 00:35:35;;;;;;;4.70;2.20;;;13.60;58.10;;;;;;5073006;28;20483;-75
2023/01/30 00:38:01;;;;;;;5.03;2.08;;;13.60;58.20;;;;;;5073373;28;20025;-77
2023/01/30 00:40:28;;;;;;;6.63;2.25;;;13.60;58.20;;;;;;5072903;28;20032;-77
2023/01/30 00:48:25;;;;;;;3.15;1.70;;;13.60;58.40;;;;;;5073029;28;20082;-77
2023/01/30 00:50:51;;;;;;;5.57;1.77;;;13.60;58.40;;;;;;5072690;28;20028;-77
2023/01/30 00:53:16;;;;;;;3.40;1.42;;;13.60;58.40;;;;;;5072694;28;20082;-77
2023/01/30 00:55:43;;;;;;;5.10;2.15;;;13.60;58.50;;;;;;5072707;28;20028;-74
2023/01/30 00:58:09;;;;;;;4.13;1.70;;;13.60;58.60;;;;;;5072671;28;20074;-74
2023/01/30 01:00:35;;;;;;;4.57;1.92;;;13.60;59.20;;;;;;5072562;28;20048;-74
2023/01/30 01:03:01;;;;;;;4.13;2.17;;;13.60;58.60;;;;;;5072710;28;20039;-74
2023/01/30 01:05:27;;;;;;;4.60;1.60;;;13.60;58.60;;;;;;5072386;28;20715;-74
2023/01/30 01:07:54;;;;;;;3.25;1.52;;;13.60;58.60;;;;;;5072461;28;20021;-74
2023/01/30 01:10:20;;;;;;;3.03;1.38;;;13.60;58.70;;;;;;5072504;28;20111;-74
2023/01/30 01:12:47;;;;;;;6.57;1.50;;;13.60;58.70;;;;;;5072380;28;20044;-74
2023/01/30 01:15:13;;;;;;;6.72;1.63;;;13.60;58.80;;;;;;5072520;28;20025;-77
2023/01/30 01:17:39;;;;;;;5.97;1.33;;;13.60;58.80;;;;;;5072361;28;20390;-77
2023/01/30 01:20:06;;;;;;;3.72;1.55;;;13.60;58.70;;;;;;5072270;28;20024;-77
2023/01/30 01:22:32;;;;;;;3.65;1.83;;;13.60;58.90;;;;;;5072231;28;20103;-77
2023/01/30 01:24:58;;;;;;;4.47;1.33;;;13.60;58.80;;;;;;5072481;28;20167;-77
2023/01/30 01:27:23;;;;;;;3.03;1.45;;;13.50;58.70;;;;;;5072512;28;20024;-77
2023/01/30 01:29:49;;;;;;;5.32;1.42;;;13.60;58.80;;;;;;5072258;28;20028;-77
2023/01/30 01:32:15;;;;;;;1.80;1.30;;;13.50;58.70;;;;;;5072563;28;20463;-74
2023/01/30 01:34:40;;;;;;;5.10;1.30;;;13.50;58.80;;;;;;5072189;28;20078;-74
2023/01/30 01:37:06;;;;;;;7.93;2.05;;;13.60;58.90;;;;;;5072060;28;20060;-74
2023/01/30 01:42:17;;;;;;;4.97;1.60;;;13.50;58.70;;;;;;5072425;28;20042;-74
2023/01/30 01:45:18;;;;;;;5.45;1.45;;;13.50;58.90;;;;;;5071901;28;20082;-74
2023/01/30 01:47:53;;;;;;;2.38;1.35;;;13.50;58.80;;;;;;5072289;28;20023;-74
2023/01/30 01:50:23;;;;;;;5.78;1.50;;;13.50;58.90;;;;;;5072173;28;20025;-74
2023/01/30 01:52:53;;;;;;;4.97;1.67;;;13.50;58.90;;;;;;5072038;28;20031;-74
2023/01/30 01:55:21;;;;;;;3.08;1.33;;;13.50;59.00;;;;;;5071907;28;20025;-74
2023/01/30 01:58:12;;;;;;;2.22;1.00;;;13.50;59.00;;;;;;5071886;28;20029;-74
2023/01/30 02:00:38;;;;;;;3.50;1.38;;;13.50;58.90;;;;;;5071961;28;20040;-75
2023/01/30 02:03:07;;;;;;;3.20;1.23;;;13.50;59.00;;;;;;5071877;28;20036;-74
2023/01/30 02:05:37;;;;;;;4.95;1.67;;;13.50;59.10;;;;;;5053937;28;20033;-74
2023/01/30 02:08:08;;;;;;;4.47;1.27;;;13.50;59.70;;;;;;5071951;28;20028;-74
2023/01/30 02:10:58;;;;;;;5.45;1.30;;;13.50;59.10;;;;;;5071973;28;20032;-77
2023/01/30 02:13:25;;;;;;;5.68;1.52;;;13.50;59.00;;;;;;5071869;28;20028;-77
2023/01/30 02:15:51;;;;;;;4.60;1.98;;;13.50;59.10;;;;;;5071969;28;20062;-77
2023/01/30 02:18:17;;;;;;;5.95;1.60;;;13.50;59.10;;;;;;5071990;28;20029;-77
2023/01/30 02:21:07;;;;;;;5.35;1.58;;;13.50;59.10;;;;;;5071712;28;20290;-77
2023/01/30 02:24:04;;;;;;;5.57;1.35;;;13.50;59.10;;;;;;5071625;28;20024;-77
2023/01/30 02:26:32;;;;;;;4.55;2.00;;;13.50;59.20;;;;;;5075422;28;20037;-76
2023/01/30 02:29:27;;;;;;;4.63;1.60;;;13.50;59.30;;;;;;5075823;28;20025;-77
2023/01/30 02:31:58;;;;;;;3.95;1.40;;;13.50;59.20;;;;;;5065876;28;20040;-77
2023/01/30 02:35:01;;;;;;;4.40;1.73;;;13.50;59.40;;;;;;5075556;28;20033;-77
2023/01/30 02:37:50;;;;;;;5.13;1.55;;;13.50;59.30;;;;;;5075245;28;20078;-77
2023/01/30 02:40:34;;;;;;;4.35;1.23;;;13.50;59.40;;;;;;5075410;28;20119;-77
2023/01/30 02:42:59;;;;;;;4.95;1.40;;;13.50;59.40;;;;;;5075217;28;20020;-77
2023/01/30 02:45:49;;;;;;;6.10;1.63;;;13.50;59.30;;;;;;5075101;28;20039;-74
2023/01/30 02:48:22;;;;;;;4.13;1.33;;;13.40;59.20;;;;;;5075206;28;20033;-74
2023/01/30 02:51:19;;;;;;;3.17;1.02;;;13.50;59.40;;;;;;5075002;28;20107;-74
2023/01/30 02:53:47;;;;;;;4.32;1.23;;;13.50;59.30;;;;;;5054956;28;20130;-74
2023/01/30 02:56:13;;;;;;;3.90;1.52;;;13.40;59.50;;;;;;5074941;28;20032;-74
2023/01/30 02:58:51;;;;;;;5.90;1.63;;;13.40;59.50;;;;;;5074884;28;20029;-74
2023/01/30 03:02:04;;;;;;;3.30;1.10;;;13.50;59.40;;;;;;5075089;28;20109;-74
2023/01/30 03:04:36;;;;;;;5.38;1.60;;;13.50;59.30;;;;;;5065812;28;20045;-77
2023/01/30 03:07:26;;;;;;;3.80;1.15;;;13.40;59.40;;;;;;5074717;28;20040;-77
2023/01/30 03:10:06;;;;;;;4.03;1.40;;;13.40;59.30;;;;;;5074754;28;20025;-77
2023/01/30 03:12:48;;;;;;;4.40;1.40;;;13.40;59.50;;;;;;5074671;28;20029;-77
2023/01/30 03:15:40;;;;;;;5.55;1.38;;;13.40;59.50;;;;;;5075011;28;20074;-77
2023/01/30 03:18:06;;;;;;;4.50;1.20;;;13.40;59.40;;;;;;5069833;28;20131;-77
2023/01/30 03:20:36;;;;;;;3.85;1.50;;;13.40;59.50;;;;;;5074592;28;20025;-77
2023/01/30 03:23:02;;;;;;;2.90;1.52;;;13.40;59.50;;;;;;5074568;28;20552;-74
2023/01/30 03:25:28;;;;;;;4.25;1.35;;;13.40;59.60;;;;;;5074442;28;20036;-74
2023/01/30 03:27:55;;;;;;;2.83;1.15;;;13.40;59.50;;;;;;5074361;28;20020;-74
2023/01/30 03:30:23;;;;;;;5.68;1.52;;;13.40;59.50;;;;;;5074333;28;20113;-74
2023/01/30 03:32:49;;;;;;;7.53;1.73;;;13.40;59.60;;;;;;5074363;28;20467;-74
2023/01/30 03:35:16;;;;;;;4.95;1.45;;;13.40;59.50;;;;;;5074285;28;20025;-74
2023/01/30 03:37:45;;;;;;;6.22;1.50;;;13.40;59.60;;;;;;5073050;28;20031;-74
2023/01/30 03:40:13;;;;;;;6.60;1.63;;;13.40;59.70;;;;;;5074179;28;20024;-74
2023/01/30 03:42:38;;;;;;;5.00;1.40;;;13.40;59.70;;;;;;5074195;28;20479;-74
2023/01/30 03:45:04;;;;;;;4.47;1.33;;;13.40;59.70;;;;;;5074499;28;20090;-74
2023/01/30 03:47:30;;;;;;;6.40;2.28;;;13.40;59.80;;;;;;5074232;28;20490;-74
2023/01/30 03:49:56;;;;;;;3.25;1.08;;;13.40;59.70;;;;;;5074037;28;20036;-74
2023/01/30 03:52:21;;;;;;;6.10;1.20;;;13.30;59.70;;;;;;5073823;28;20028;-74
2023/01/30 03:54:47;;;;;;;4.90;1.33;;;13.40;59.80;;;;;;5073886;28;20033;-74
2023/01/30 03:57:12;;;;;;;4.25;1.90;;;13.40;59.70;;;;;;5073806;28;20477;-74
2023/01/30 03:59:38;;;;;;;3.42;1.20;;;13.40;59.80;;;;;;5074142;28;20028;-77
2023/01/30 04:02:03;;;;;;;6.20;1.92;;;13.40;59.80;;;;;;5073542;28;20068;-77
2023/01/30 04:04:29;;;;;;;7.00;1.48;;;13.40;59.80;;;;;;5073615;28;20037;-77
2023/01/30 04:06:55;;;;;;;5.10;1.45;;;13.30;59.70;;;;;;5073704;28;20020;-77
2023/01/30 04:09:20;;;;;;;5.25;1.75;;;13.40;59.90;;;;;;5073633;28;20113;-77
2023/01/30 04:11:46;;;;;;;4.47;1.63;;;13.40;59.80;;;;;;5073453;28;20028;-77
2023/01/30 04:14:12;;;;;;;6.93;1.60;;;13.30;59.70;;;;;;5073503;28;20035;-77
2023/01/30 04:16:37;;;;;;;3.65;1.45;;;13.30;59.90;;;;;;5073462;28;20032;-74
2023/01/30 04:19:03;;;;;;;5.90;1.58;;;13.30;59.70;;;;;;5073426;28;20036;-74
2023/01/30 04:21:29;;;;;;;4.10;1.40;;;13.40;59.80;;;;;;5073311;28;20039;-74
2023/01/30 04:23:54;;;;;;;3.97;1.75;;;13.30;59.70;;;;;;5073199;28;20033;-74
2023/01/30 04:26:20;;;;;;;5.70;1.33;;;13.40;59.80;;;;;;5073446;28;20032;-74
2023/01/30 04:28:45;;;;;;;4.97;1.25;;;13.30;59.70;;;;;;5073165;28;20057;-74
2023/01/30 04:31:11;;;;;;;3.17;1.52;;;13.30;59.70;;;;;;5073076;28;20039;-74
2023/01/30 04:33:38;;;;;;;5.57;1.42;;;13.30;59.70;;;;;;5073084;28;20503;-74
2023/01/30 04:36:05;;;;;;;3.53;1.50;;;13.30;59.60;;;;;;5073111;28;20447;-74
2023/01/30 04:38:32;;;;;;;2.85;1.40;;;13.40;59.70;;;;;;5072965;28;20107;-74
2023/01/30 04:40:57;;;;;;;4.28;1.50;;;13.40;59.80;;;;;;5072863;28;20501;-74
2023/01/30 04:43:25;;;;;;;3.17;1.13;;;13.30;59.80;;;;;;5072812;28;20016;-74
2023/01/30 04:45:51;;;;;;;6.88;2.10;;;13.40;59.80;;;;;;5072852;28;20183;-74
2023/01/30 04:48:19;;;;;;;3.80;1.27;;;13.40;59.80;;;;;;5072477;28;20028;-74
2023/01/30 04:50:48;;;;;;;3.70;1.55;;;13.40;59.80;;;;;;5072800;28;20103;-74
2023/01/30 04:53:14;;;;;;;2.95;1.05;;;13.40;59.80;;;;;;5072805;28;20475;-74
2023/01/30 04:55:39;;;;;;;1.85;1.00;;;13.40;59.90;;;;;;5072687;28;20024;-74
2023/01/30 04:58:05;;;;;;;1.95;0.80;;;13.40;59.80;;;;;;5072650;28;20027;-74
2023/01/30 05:00:30;;;;;;;3.95;1.33;;;13.40;59.90;;;;;;5072571;28;20037;-74
2023/01/30 05:09:40;;;;;;;2.42;1.13;;;13.50;59.90;;;;;;5032994;28;20037;-76
2023/01/30 05:12:06;;;;;;;3.95;1.00;;;13.50;59.90;;;;;;5032623;28;20017;-75
2023/01/30 05:14:33;;;;;;;2.45;0.98;;;13.50;59.90;;;;;;5032925;28;20030;-75
2023/01/30 05:16:59;;;;;;;4.45;1.27;;;13.50;59.90;;;;;;5032618;28;20028;-75
2023/01/30 05:19:25;;;;;;;2.63;1.10;;;13.50;59.90;;;;;;5032793;28;20100;-75
2023/01/30 05:21:51;;;;;;;4.38;1.52;;;13.50;60.00;;;;;;5032671;28;20092;-75
2023/01/30 05:24:17;;;;;;;2.70;1.10;;;13.50;59.90;;;;;;5032336;28;20460;-75
2023/01/30 05:26:42;;;;;;;2.28;1.00;;;13.50;60.00;;;;;;5032444;28;20029;-75
2023/01/30 05:29:09;;;;;;;3.85;1.05;;;13.50;60.00;;;;;;5032381;28;20442;-75
2023/01/30 05:31:34;;;;;;;3.55;1.50;;;13.50;59.90;;;;;;5032338;28;20506;-75
2023/01/30 05:34:00;;;;;;;3.83;1.08;;;13.50;59.90;;;;;;5032335;28;20022;-75
2023/01/30 05:36:25;;;;;;;2.60;1.30;;;13.50;60.00;;;;;;5032329;28;20048;-75
2023/01/30 05:38:51;;;;;;;3.20;1.20;;;13.50;59.90;;;;;;5032236;28;20061;-75
2023/01/30 05:41:17;;;;;;;1.95;1.20;;;13.50;60.00;;;;;;5032299;28;20079;-75
2023/01/30 05:43:43;;;;;;;2.05;1.10;;;13.50;60.00;;;;;;5032176;28;20128;-75
2023/01/30 05:46:10;;;;;;;2.45;1.10;;;13.50;60.00;;;;;;5032157;28;20540;-75
2023/01/30 05:48:36;;;;;;;3.25;1.50;;;13.50;60.00;;;;;;5032249;28;20475;-75
2023/01/30 05:51:02;;;;;;;2.90;1.02;;;13.50;60.00;;;;;;5032425;28;20025;-75
2023/01/30 05:53:33;;;;;;;1.52;0.98;;;13.60;60.10;;;;;;5032473;28;20029;-75
2023/01/30 05:56:02;;;;;;;3.28;1.15;;;13.50;60.10;;;;;;5032127;28;20041;-75
2023/01/30 05:58:29;;;;;;;3.42;1.80;;;13.60;60.20;;;;;;5032185;28;20150;-75
2023/01/30 06:01:00;;;;;;;2.70;1.95;;;13.50;60.20;;;;;;5035061;28;20061;-75
2023/01/30 06:03:25;;;;;;;4.47;2.80;;;13.50;60.20;;;;;;5035830;28;20434;-75
2023/01/30 06:05:51;;;;;;;3.40;3.10;;;13.60;61.00;;;;;;5036080;28;20026;-75
2023/01/30 06:08:17;;;;;;;5.05;4.50;;;13.60;60.40;;;;;;5036053;28;20231;-75
2023/01/30 06:10:42;;;;;;;6.25;5.13;;;13.60;60.40;;;;;;5036027;28;20117;-75
2023/01/30 06:13:09;;;;;;;7.30;6.60;;;13.60;60.40;;;;;;5035934;28;20029;-75
2023/01/30 06:15:35;;;;;;;8.05;7.35;;;13.60;60.40;;;;;;5035986;28;20482;-74
2023/01/30 06:18:01;;;;;;;10.32;9.43;;;13.60;60.40;;;;;;5035845;28;20105;-75
2023/01/30 06:20:27;;;;;;;11.65;10.68;;;13.60;60.50;;;;;;5035812;28;20105;-75
2023/01/30 06:22:52;;;;;;;13.25;12.15;;;13.60;61.20;;;;;;5035795;28;20044;-75
2023/01/30 06:25:18;;;;;;;14.75;13.43;;;13.60;60.50;;;;;;5036294;28;20025;-77
2023/01/30 06:27:45;;;;;;;16.63;14.40;;;13.60;60.60;;;;;;5035878;28;20063;-77
2023/01/30 06:30:11;;;;;;;16.73;15.20;;;13.60;61.30;;;;;;5035639;28;20021;-77
2023/01/30 06:32:37;;;;;;;17.85;15.80;;;13.60;60.60;;;;;;5035689;28;20076;-76
2023/01/30 06:35:03;;;;;;;19.88;17.30;;;13.60;60.60;;;;;;5035559;28;20067;-77
2023/01/30 06:37:29;;;;;;;17.25;15.70;;;13.60;60.60;;;;;;5035329;28;20022;-77
2023/01/30 06:39:54;;;;;;;17.75;15.50;;;13.60;60.50;;;;;;5017695;28;20179;-77
2023/01/30 06:42:20;;;;;;;18.20;16.40;;;13.60;60.50;;;;;;5035452;28;20143;-77
2023/01/30 06:44:45;;;;;;;17.38;15.70;;;13.60;60.50;;;;;;5035327;28;20052;-77
2023/01/30 06:47:11;;;;;;;18.00;14.90;;;13.60;60.60;;;;;;5035305;28;20035;-77
2023/01/30 06:49:37;;;;;;;15.05;13.60;;;13.60;60.50;;;;;;5035366;28;20063;-77
2023/01/30 06:52:02;;;;;;;16.80;14.27;;;13.60;60.50;;;;;;5035499;28;20028;-77
2023/01/30 06:54:28;;;;;;;15.32;13.50;;;13.60;60.50;;;;;;5017423;28;20025;-76
2023/01/30 06:56:54;;;;;;;14.85;12.25;;;13.60;60.50;;;;;;5035188;28;20056;-76
2023/01/30 06:59:19;;;;;;;13.93;12.30;;;13.60;60.50;;;;;;5035030;28;20096;-76
2023/01/30 07:01:45;;;;;;;12.02;10.82;;;13.60;60.40;;;;;;5034857;28;20025;-76
2023/01/30 07:04:10;;;;;;;12.00;10.80;;;13.60;60.40;;;;;;5017289;28;20033;-76
2023/01/30 07:06:36;;;;;;;11.07;9.68;;;13.60;60.40;;;;;;5034983;28;20017;-76
2023/01/30 07:09:02;;;;;;;11.77;9.43;;;13.60;60.50;;;;;;5035032;28;20018;-76
2023/01/30 07:11:28;;;;;;;12.10;9.15;;;13.60;60.50;;;;;;5034771;28;20095;-76
2023/01/30 07:13:53;;;;;;;10.82;9.18;;;13.70;60.50;;;;;;5017076;28;20061;-76
2023/01/30 07:16:19;;;;;;;10.95;8.38;;;13.60;60.50;;;;;;5034740;28;20460;-76
2023/01/30 07:18:45;;;;;;;11.32;7.70;;;13.70;60.50;;;;;;5034823;28;20030;-76
2023/01/30 07:21:10;;;;;;;9.30;7.47;;;13.70;60.40;;;;;;5034900;28;20021;-76
2023/01/30 07:23:36;;;;;;;10.30;7.40;;;13.70;60.40;;;;;;5034539;28;20498;-76
2023/01/30 07:26:05;;;;;;;11.82;6.93;;;13.70;60.40;;;;;;5034718;28;20057;-76
2023/01/30 07:28:31;;;;;;;6.87;6.10;;;13.70;60.40;;;;;;5034868;28;20052;-76
2023/01/30 07:31:00;;;;;;;8.27;6.03;;;13.70;60.30;;;;;;5034781;28;20025;-76
2023/01/30 07:33:26;;;;;;;7.20;5.07;;;13.70;60.20;;;;;;5034759;28;20018;-75
2023/01/30 07:35:52;;;;;;;8.80;4.57;;;13.70;60.30;;;;;;5034382;28;20053;-75
2023/01/30 07:38:18;;;;;;;9.85;4.50;;;13.70;60.40;;;;;;5034611;28;20068;-74
2023/01/30 07:40:44;;;;;;;6.45;4.22;;;13.70;60.40;;;;;;5034639;28;20029;-74
2023/01/30 07:43:12;;;;;;;7.55;4.43;;;13.70;60.40;;;;;;5034336;28;20147;-73
2023/01/30 07:45:40;;;;;;;7.28;3.90;;;13.70;60.50;;;;;;5034397;28;20029;-79
2023/01/30 07:48:08;;;;;;;8.52;4.30;;;13.80;60.50;;;;;;5034882;28;20356;-79
2023/01/30 07:50:35;;;;;;;6.35;3.28;;;13.80;60.50;;;;;;5034365;28;20072;-77
2023/01/30 07:53:06;;;;;;;4.35;3.08;;;13.80;60.50;;;;;;5034458;28;20379;-77
2023/01/30 07:55:32;;;;;;;7.20;3.40;;;13.70;60.40;;;;;;5034045;28;20435;-76
2023/01/30 07:57:58;;;;;;;4.70;3.10;;;13.70;60.50;;;;;;5016331;28;20403;-76
2023/01/30 08:00:24;;;;;;;8.10;3.30;;;13.70;60.40;;;;;;5033927;28;20036;-76
2023/01/30 08:02:49;;;;;;;6.93;2.60;;;13.70;60.40;;;;;;5033631;28;20108;-76
2023/01/30 08:05:16;;;;;;;7.82;3.15;;;13.80;61.00;;;;;;5033867;28;20033;-76
2023/01/30 08:07:42;;;;;;;9.45;2.42;;;13.80;60.30;;;;;;5034112;28;20089;-76
2023/01/30 08:10:08;;;;;;;6.70;2.70;;;13.80;60.20;;;;;;5015987;28;20547;-75
2023/01/30 08:12:34;;;;;;;5.90;2.60;;;13.80;60.20;;;;;;5033578;28;20044;-75
2023/01/30 08:14:59;;;;;;;5.18;2.40;;;13.80;60.10;;;;;;5033905;28;20480;-75
2023/01/30 08:17:25;;;;;;;3.33;1.88;;;13.80;60.00;;;;;;5034004;28;20029;-75
2023/01/30 08:19:50;;;;;;;4.03;1.77;;;13.90;60.10;;;;;;5033629;28;20543;-75
2023/01/30 08:22:16;;;;;;;3.53;1.75;;;13.80;60.00;;;;;;5033012;28;20033;-76
2023/01/30 08:24:42;;;;;;;8.25;2.17;;;13.80;60.00;;;;;;5033744;28;20029;-76
2023/01/30 08:27:08;;;;;;;6.75;2.10;;;13.80;60.00;;;;;;5015823;28;20155;-76
2023/01/30 08:29:33;;;;;;;5.43;2.25;;;13.80;60.00;;;;;;5033353;28;20024;-76
2023/01/30 08:31:59;;;;;;;6.85;2.30;;;13.90;60.00;;;;;;5033423;28;20032;-76
2023/01/30 08:34:25;;;;;;;6.82;2.35;;;13.80;60.00;;;;;;5033246;28;20028;-75
2023/01/30 08:36:51;;;;;;;3.13;1.70;;;13.80;59.90;;;;;;5033208;28;20021;-75
2023/01/30 08:39:16;;;;;;;8.30;2.00;;;13.80;59.90;;;;;;5033237;28;20026;-75
2023/01/30 08:41:43;;;;;;;5.78;1.75;;;13.90;60.60;;;;;;5033123;28;20032;-77
2023/01/30 08:44:10;;;;;;;5.53;1.88;;;13.90;60.00;;;;;;5033356;28;20037;-77
2023/01/30 08:46:36;;;;;;;6.00;2.03;;;13.90;60.00;;;;;;5033017;28;20491;-77
2023/01/30 08:49:01;;;;;;;4.82;1.35;;;13.90;59.90;;;;;;5033362;28;20032;-77
2023/01/30 08:51:27;;;;;;;5.00;1.40;;;13.90;59.90;;;;;;5033056;28;20025;-77
2023/01/30 08:53:53;;;;;;;6.85;1.58;;;13.90;59.80;;;;;;5032988;28;20033;-76
2023/01/30 08:56:18;;;;;;;6.45;1.58;;;14.00;59.80;;;;;;5033153;28;20091;-75
2023/01/30 08:58:45;;;;;;;5.60;1.67;;;13.90;59.70;;;;;;5032881;28;20040;-75
2023/01/30 09:01:11;;;;;;;6.20;1.95;;;13.90;59.70;;;;;;5033145;28;20089;-74
2023/01/30 09:03:38;;;;;;;6.65;1.95;;;14.00;59.80;;;;;;5032417;28;20436;-75
2023/01/30 09:06:04;;;;;;;4.38;1.35;;;14.00;59.70;;;;;;5032791;28;20065;-76
2023/01/30 09:08:29;;;;;;;6.30;2.30;;;14.00;59.80;;;;;;5032748;28;20025;-77
2023/01/30 09:10:59;;;;;;;3.83;1.33;;;14.00;59.80;;;;;;5032984;28;20179;-76
2023/01/30 09:13:25;;;;;;;5.10;1.27;;;14.00;59.80;;;;;;5037021;28;20361;-73
2023/01/30 09:15:50;;;;;;;3.95;1.60;;;14.00;59.80;;;;;;5032504;28;20100;-74
2023/01/30 09:18:16;;;;;;;2.67;1.23;;;14.00;59.70;;;;;;5032713;28;20096;-74
2023/01/30 09:20:41;;;;;;;5.05;1.63;;;14.00;59.70;;;;;;5014643;28;20380;-73
2023/01/30 09:23:07;;;;;;;7.35;1.77;;;14.00;59.70;;;;;;5032527;28;20037;-74
2023/01/30 09:25:33;;;;;;;7.10;1.83;;;14.00;59.70;;;;;;5032405;28;20118;-73
2023/01/30 09:27:58;;;;;;;4.82;1.30;;;14.00;59.70;;;;;;5032377;28;20544;-73
2023/01/30 09:30:24;;;;;;;5.38;1.67;;;14.00;60.30;;;;;;5032394;28;20040;-73
2023/01/30 09:32:50;;;;;;;3.95;1.45;;;14.00;59.60;;;;;;5032343;28;20092;-74
2023/01/30 09:35:16;;;;;;;4.95;1.25;;;14.00;60.30;;;;;;5031492;28;20025;-73
2023/01/30 09:37:49;;;;;;;5.32;2.03;;;14.00;59.70;;;;;;5032571;28;20368;-73
2023/01/30 09:40:22;;;;;;;4.03;1.58;;;14.00;59.70;;;;;;5015007;28;20026;-75
2023/01/30 09:42:57;;;;;;;4.07;1.35;;;14.10;59.80;;;;;;5032547;28;20026;-75
2023/01/30 09:45:31;;;;;;;7.13;1.58;;;14.10;59.80;;;;;;5032502;28;20068;-75
2023/01/30 09:48:18;;;;;;;6.07;1.75;;;14.00;59.70;;;;;;5032413;28;20018;-75
2023/01/30 09:50:53;;;;;;;3.78;1.60;;;14.10;59.80;;;;;;5032404;28;20107;-75
2023/01/30 09:53:34;;;;;;;5.22;1.45;;;14.10;59.80;;;;;;5032171;28;20065;-78
2023/01/30 09:56:00;;;;;;;6.07;1.52;;;14.10;59.80;;;;;;5032556;28;20037;-77
2023/01/30 09:58:51;;;;;;;7.00;1.77;;;14.10;59.70;;;;;;5032250;28;20024;-77
2023/01/30 10:01:46;;;;;;;5.22;1.38;;;14.10;59.70;;;;;;5031667;28;20407;-76
2023/01/30 10:04:30;;;;;;;5.35;1.67;;;14.10;59.70;;;;;;5023649;28;20057;-78
2023/01/30 10:07:09;;;;;;;4.25;1.63;;;14.10;59.80;;;;;;5032058;28;20468;-78
2023/01/30 10:09:58;;;;;;;5.00;1.33;;;14.10;60.40;;;;;;5032046;28;20034;-79
2023/01/30 10:12:53;;;;;;;3.38;1.10;;;14.20;67.60;;;;;;5032035;28;20025;-77
2023/01/30 10:15:40;;;;;;;6.38;1.35;;;14.20;59.90;;;;;;5032058;28;20510;-77
2023/01/30 10:18:34;;;;;;;6.60;1.55;;;14.10;59.80;;;;;;5032019;28;20189;-77
2023/01/30 10:21:35;;;;;;;6.20;1.30;;;14.20;59.90;;;;;;5031887;28;20021;-74
2023/01/30 10:24:04;;;;;;;3.65;1.23;;;14.20;59.80;;;;;;5031984;28;20065;-73
2023/01/30 10:26:30;;;;;;;5.18;1.27;;;14.20;59.90;;;;;;5031853;28;20495;-73
2023/01/30 10:29:07;;;;;;;4.10;1.50;;;14.20;59.80;;;;;;5032018;28;20025;-72
2023/01/30 10:31:47;;;;;;;8.10;1.75;;;14.20;59.80;;;;;;5031887;28;20029;-73
2023/01/30 10:34:17;;;;;;;;;;;14.20;59.70;;;;;;5032549;28;20514;-74
2023/01/30 10:37:10;;;;;;;3.47;1.30;;;14.20;59.70;;;;;;5031857;28;19905;-75
2023/01/30 10:40:11;;;;;;;6.18;1.75;;;14.20;59.70;;;;;;5031755;28;20018;-75
2023/01/30 10:42:42;;;;;;;6.55;1.83;;;14.20;59.70;;;;;;5031732;28;20021;-74
2023/01/30 10:45:16;;;;;;;20.23;1.95;;;14.20;59.70;;;;;;5031931;28;20391;-74
2023/01/30 10:48:10;;;;;;;4.93;1.50;;;14.20;59.70;;;;;;5035736;28;20067;-74
2023/01/30 10:50:57;;;;;;;3.80;1.20;;;14.30;59.80;;;;;;5035609;28;20029;-73
2023/01/30 10:53:36;;;;;;;6.05;1.63;;;14.30;59.80;;;;;;5035532;28;20033;-74
2023/01/30 10:56:16;;;;;;;6.85;1.83;;;14.30;59.80;;;;;;5035381;28;20025;-73
2023/01/30 10:58:55;;;;;;;5.93;1.13;;;14.30;59.80;;;;;;5035470;28;20033;-73
2023/01/30 11:01:31;;;;;;;7.10;1.90;;;14.30;67.30;;;;;;5034904;28;20108;-73
2023/01/30 11:04:03;;;;;;;5.65;1.35;;;14.30;59.70;;;;;;5034793;28;20052;-73
2023/01/30 11:06:32;;;;;;;5.85;1.30;;;14.30;59.80;;;;;;5035237;28;20021;-73
2023/01/30 11:08:58;;;;;;;4.95;1.20;;;14.30;59.70;;;;;;5035247;28;20020;-74
2023/01/30 11:11:31;;;;;;;6.60;1.30;;;14.30;59.80;;;;;;5035121;28;20036;-74
2023/01/30 11:14:06;;;;;;;5.53;1.63;;;14.40;59.80;;;;;;5035141;28;20028;-74
2023/01/30 11:16:42;;;;;;;6.47;1.42;;;14.40;60.50;;;;;;5034841;28;20021;-74
2023/01/30 11:19:09;;;;;;;5.13;1.42;;;14.40;59.80;;;;;;5034699;28;20026;-73
2023/01/30 11:21:35;;;;;;;4.95;1.70;;;14.40;59.80;;;;;;5035300;28;20026;-75
2023/01/30 11:24:15;;;;;;;4.78;1.50;;;14.40;59.80;;;;;;5034551;28;20075;-73
2023/01/30 11:26:41;;;;;;;;;;;14.40;60.40;;;;;;5035097;28;20021;-75
2023/01/30 11:29:26;;;;;;;4.90;1.67;;;14.40;59.90;;;;;;5034884;28;19951;-75
2023/01/30 11:31:53;;;;;;;4.18;1.42;;;14.40;59.90;;;;;;5034492;28;20204;-77
2023/01/30 11:34:21;;;;;;;3.35;1.40;;;14.40;59.80;;;;;;5034623;28;20025;-80
2023/01/30 11:36:48;;;;;;;4.88;1.10;;;14.40;59.80;;;;;;5034350;28;20052;-78
2023/01/30 11:39:16;;;;;;;7.18;1.55;;;14.50;59.90;;;;;;5034499;28;20037;-77
2023/01/30 11:41:55;;;;;;;6.43;1.63;;;14.40;60.00;;;;;;5034597;28;20029;-74
2023/01/30 11:44:29;;;;;;;4.13;1.40;;;14.40;59.90;;;;;;5034394;28;20026;-76
2023/01/30 11:46:59;;;;;;;6.85;1.75;;;14.50;59.80;;;;;;5034514;28;20492;-76
2023/01/30 11:49:31;;;;;;;5.93;1.77;;;14.50;59.80;;;;;;5034411;28;20383;-76
2023/01/30 11:51:58;;;;;;;5.40;2.08;;;14.50;59.90;;;;;;5034168;28;20026;-77
2023/01/30 11:54:37;;;;;;;4.25;1.38;;;14.50;59.90;;;;;;5034226;28;20027;-76
2023/01/30 11:57:08;;;;;;;9.23;1.73;;;14.50;59.90;;;;;;5033105;28;20492;-73
2023/01/30 11:59:40;;;;;;;6.47;1.85;;;14.50;59.90;;;;;;5034465;28;20468;-74
2023/01/30 12:02:25;;;;;;;5.47;1.73;;;14.50;59.90;;;;;;5033981;28;20060;-76
2023/01/30 12:04:58;;;;;;;5.70;1.77;;;14.50;59.80;;;;;;5033999;28;20060;-76
2023/01/30 12:07:26;;;;;;;5.35;1.70;;;14.50;59.80;;;;;;5034064;28;20431;-76
2023/01/30 12:09:53;;;;;;;5.82;1.65;;;14.60;59.80;;;;;;5033752;28;20033;-75
2023/01/30 12:12:33;;;;;;;6.07;1.90;;;14.60;59.80;;;;;;5033752;28;20029;-75
2023/01/30 12:15:20;;;;;;;8.27;2.08;;;14.60;59.70;;;;;;5033793;28;20037;-75
2023/01/30 12:18:15;;;;;;;6.05;1.40;;;14.70;59.40;;;;;;5033652;28;20032;-75
2023/01/30 12:20:59;;;;;;;7.15;2.03;;;14.70;59.30;;;;;;5033681;28;20029;-74
2023/01/30 12:23:40;;;;;;;7.22;2.50;;;14.80;59.30;;;;;;5033515;28;20388;-75
2023/01/30 12:26:20;;;;;;;6.32;1.60;;;14.80;59.30;;;;;;5033528;28;20399;-75
2023/01/30 12:28:49;;;;;;;;;;;14.80;59.40;;;;;;5034120;28;20427;-75
2023/01/30 12:31:34;;;;;;;8.35;2.17;;;14.80;59.40;;;;;;5033419;28;19905;-75
2023/01/30 12:34:01;;;;;;;4.03;1.60;;;14.70;59.30;;;;;;5033435;28;20025;-75
2023/01/30 12:36:44;;;;;;;7.80;1.70;;;14.80;59.50;;;;;;5015551;28;20053;-74
2023/01/30 12:39:22;;;;;;;5.30;1.75;;;14.70;59.50;;;;;;5033316;28;20484;-75
2023/01/30 12:42:17;;;;;;;5.93;1.77;;;14.70;59.40;;;;;;5033265;28;20025;-74
2023/01/30 12:44:58;;;;;;;6.05;2.10;;;14.70;59.60;;;;;;5032991;28;20116;-73
2023/01/30 12:47:35;;;;;;;11.82;2.28;;;14.80;59.60;;;;;;5033206;28;20029;-73
2023/01/30 12:50:03;;;;;;;5.65;1.60;;;14.70;60.10;;;;;;5033156;28;20087;-74
2023/01/30 12:52:57;;;;;;;10.38;2.10;;;14.70;59.50;;;;;;5032984;28;20121;-74
2023/01/30 12:55:28;;;;;;;6.03;1.50;;;14.80;59.60;;;;;;5033008;28;20018;-73
2023/01/30 12:58:10;;;;;;;6.32;1.63;;;14.80;59.50;;;;;;5032909;28;20021;-73
2023/01/30 13:00:53;;;;;;;4.50;1.50;;;14.80;59.70;;;;;;5032818;28;20029;-73
2023/01/30 13:04:00;;;;;;;7.00;1.42;;;14.80;59.70;;;;;;5032550;28;20447;-73
2023/01/30 13:07:03;;;;;;;6.57;2.35;;;14.80;60.30;;;;;;4999156;28;20050;-73
2023/01/30 13:09:44;;;;;;;7.28;2.28;;;14.80;59.60;;;;;;5014792;28;20480;-73
2023/01/30 13:12:31;;;;;;;6.32;1.77;;;14.80;59.60;;;;;;5032693;28;20030;-73
2023/01/30 13:15:12;;;;;;;5.07;1.55;;;14.80;59.60;;;;;;5032966;28;20079;-73
2023/01/30 13:18:08;;;;;;;6.03;2.00;;;14.80;59.60;;;;;;5032619;28;20100;-74
2023/01/30 13:20:51;;;;;;;8.23;1.30;;;14.80;59.60;;;;;;5032631;28;20022;-73